createdAt,value
2023-10-05T00:01:26.172Z,14.18
2023-10-05T00:03:53.712Z,14.10
2023-10-05T00:06:25.129Z,14.14
2023-10-05T00:08:54.264Z,14.12
2023-10-05T00:11:31.658Z,14.13
2023-10-05T00:14:05.048Z,14.12
2023-10-05T00:16:37.880Z,14.11
2023-10-05T00:19:14.010Z,14.10
2023-10-05T00:21:53.745Z,14.06
2023-10-05T00:24:30.628Z,14.05
2023-10-05T00:26:59.394Z,14.00
2023-10-05T00:29:29.694Z,13.98
2023-10-05T00:32:01.403Z,13.90
2023-10-05T00:34:29.588Z,14.02
2023-10-05T00:36:59.854Z,14.05
2023-10-05T00:39:32.154Z,13.97
2023-10-05T00:42:05.202Z,13.85
2023-10-05T00:44:33.943Z,13.91
2023-10-05T00:47:06.557Z,13.86
2023-10-05T00:49:46.853Z,13.88
2023-10-05T00:52:19.110Z,13.78
2023-10-05T00:54:49.671Z,13.81
2023-10-05T00:57:20.266Z,13.95
2023-10-05T00:59:48.595Z,13.98
2023-10-05T01:02:16.056Z,13.86
2023-10-05T01:04:47.368Z,13.74
2023-10-05T01:07:27.817Z,13.83
2023-10-05T01:10:02.362Z,13.99
2023-10-05T01:12:39.466Z,14.04
2023-10-05T01:15:11.578Z,14.10
2023-10-05T01:17:38.824Z,14.06
2023-10-05T01:20:13.821Z,14.13
2023-10-05T01:22:41.038Z,14.17
2023-10-05T01:25:10.081Z,14.27
2023-10-05T01:27:41.643Z,14.25
2023-10-05T01:30:10.503Z,14.25
2023-10-05T01:32:37.354Z,14.25
2023-10-05T01:35:12.350Z,14.28
2023-10-05T01:37:41.399Z,14.25
2023-10-05T01:40:34.773Z,14.24
2023-10-05T01:43:01.436Z,14.13
2023-10-05T01:45:34.807Z,14.19
2023-10-05T01:48:05.800Z,14.21
2023-10-05T01:50:33.597Z,14.27
2023-10-05T01:53:16.657Z,14.30
2023-10-05T01:55:46.662Z,14.32
2023-10-05T01:58:26.993Z,14.24
2023-10-05T02:00:55.385Z,14.22
2023-10-05T02:03:25.431Z,14.19
2023-10-05T02:05:57.952Z,14.22
2023-10-05T02:08:24.753Z,14.27
2023-10-05T02:10:51.819Z,14.25
2023-10-05T02:13:19.071Z,14.18
2023-10-05T02:15:50.142Z,14.11
2023-10-05T02:18:25.832Z,14.23
2023-10-05T02:20:58.137Z,14.28
2023-10-05T02:23:27.524Z,14.22
2023-10-05T02:25:58.668Z,14.22
2023-10-05T02:28:28.355Z,14.10
2023-10-05T02:31:00.831Z,14.11
2023-10-05T02:33:32.973Z,14.14
2023-10-05T02:36:12.920Z,14.09
2023-10-05T02:38:40.590Z,14.08
2023-10-05T02:41:08.447Z,14.21
2023-10-05T02:43:41.877Z,14.25
2023-10-05T02:46:12.674Z,14.27
2023-10-05T02:48:42.667Z,14.26
2023-10-05T02:51:12.541Z,14.27
2023-10-05T02:53:42.637Z,14.36
2023-10-05T02:56:28.024Z,14.39
2023-10-05T02:58:57.846Z,14.42
2023-10-05T03:01:24.650Z,14.32
2023-10-05T03:03:52.839Z,14.28
2023-10-05T03:06:23.695Z,14.30
2023-10-05T03:08:51.031Z,14.32
2023-10-05T03:11:19.482Z,14.27
2023-10-05T03:13:48.216Z,14.36
2023-10-05T03:16:18.233Z,14.38
2023-10-05T03:18:46.171Z,14.41
2023-10-05T03:21:14.978Z,14.37
2023-10-05T03:23:42.511Z,14.37
2023-10-05T03:26:11.719Z,14.38
2023-10-05T03:28:39.315Z,14.39
2023-10-05T03:31:25.333Z,14.46
2023-10-05T03:33:53.566Z,14.25
2023-10-05T03:36:21.034Z,14.07
2023-10-05T03:38:56.664Z,14.18
2023-10-05T03:41:27.432Z,13.97
2023-10-05T03:44:02.209Z,13.96
2023-10-05T03:46:29.222Z,14.03
2023-10-05T03:49:01.347Z,14.23
2023-10-05T03:51:29.936Z,14.19
2023-10-05T03:53:57.494Z,14.24
2023-10-05T03:56:28.719Z,14.31
2023-10-05T03:58:56.050Z,14.33
2023-10-05T04:01:25.944Z,14.45
2023-10-05T04:03:53.167Z,14.43
2023-10-05T04:06:25.021Z,14.57
2023-10-05T04:08:58.864Z,14.40
2023-10-05T04:11:29.942Z,14.25
2023-10-05T04:13:58.382Z,14.39
2023-10-05T04:16:45.382Z,14.44
2023-10-05T04:19:12.557Z,14.56
2023-10-05T04:21:41.455Z,14.60
2023-10-05T04:24:09.046Z,14.63
2023-10-05T04:26:38.584Z,14.65
2023-10-05T04:29:06.513Z,14.59
2023-10-05T04:31:33.834Z,14.56
2023-10-05T04:34:01.955Z,14.53
2023-10-05T04:36:28.755Z,14.67
2023-10-05T04:38:56.223Z,14.61
2023-10-05T04:41:30.033Z,14.65
2023-10-05T04:43:58.003Z,14.62
2023-10-05T04:46:25.440Z,14.66
2023-10-05T04:49:24.762Z,14.67
2023-10-05T04:51:52.427Z,14.79
2023-10-05T04:54:20.262Z,14.73
2023-10-05T04:56:49.995Z,14.64
2023-10-05T04:59:16.746Z,14.61
2023-10-05T05:02:07.453Z,14.57
2023-10-05T05:04:53.801Z,14.63
2023-10-05T05:07:23.729Z,14.64
2023-10-05T05:09:52.009Z,14.56
2023-10-05T05:12:19.141Z,14.49
2023-10-05T05:14:47.692Z,14.63
2023-10-05T05:17:25.420Z,14.72
2023-10-05T05:19:56.984Z,14.69
2023-10-05T05:22:25.071Z,14.72
2023-10-05T05:24:51.945Z,14.59
2023-10-05T05:27:18.701Z,14.68
2023-10-05T05:29:49.442Z,14.69
2023-10-05T05:32:16.200Z,14.60
2023-10-05T05:34:44.184Z,14.59
2023-10-05T05:37:15.006Z,14.67
2023-10-05T05:39:41.957Z,14.69
2023-10-05T05:42:14.385Z,14.67
2023-10-05T05:44:42.074Z,14.65
2023-10-05T05:47:11.405Z,14.68
2023-10-05T05:49:41.799Z,14.65
2023-10-05T05:52:10.099Z,14.60
2023-10-05T05:54:37.176Z,14.72
2023-10-05T05:57:12.937Z,14.79
2023-10-05T05:59:40.837Z,14.83
2023-10-05T06:02:11.868Z,14.94
2023-10-05T06:04:41.594Z,14.92
2023-10-05T06:07:12.834Z,14.83
2023-10-05T06:09:46.605Z,14.91
2023-10-05T06:12:16.494Z,15.01
2023-10-05T06:14:43.509Z,14.96
2023-10-05T06:17:11.182Z,15.05
2023-10-05T06:19:38.332Z,14.94
2023-10-05T06:22:07.791Z,14.92
2023-10-05T06:24:43.228Z,15.01
2023-10-05T06:27:09.992Z,15.17
2023-10-05T06:29:36.802Z,15.22
2023-10-05T06:32:09.799Z,15.20
2023-10-05T06:34:39.208Z,15.22
2023-10-05T06:37:05.989Z,15.28
2023-10-05T06:39:33.337Z,15.40
2023-10-05T06:42:00.173Z,15.55
2023-10-05T06:44:32.887Z,15.74
2023-10-05T06:47:01.152Z,15.80
2023-10-05T06:49:28.478Z,15.92
2023-10-05T06:51:56.569Z,16.03
2023-10-05T06:54:23.397Z,16.09
2023-10-05T06:56:51.012Z,16.09
2023-10-05T06:59:22.112Z,16.38
2023-10-05T07:01:48.927Z,16.46
2023-10-05T07:04:18.422Z,16.55
2023-10-05T07:06:46.049Z,16.48
2023-10-05T07:09:12.900Z,16.37
2023-10-05T07:11:39.691Z,16.41
2023-10-05T07:14:06.488Z,16.61
2023-10-05T07:16:33.667Z,16.69
2023-10-05T07:19:00.553Z,16.74
2023-10-05T07:21:27.447Z,16.69
2023-10-05T07:23:54.184Z,16.92
2023-10-05T07:26:21.115Z,17.00
2023-10-05T07:28:50.041Z,17.12
2023-10-05T07:31:16.852Z,17.26
2023-10-05T07:33:43.908Z,17.45
2023-10-05T07:36:10.710Z,17.45
2023-10-05T07:38:40.278Z,17.58
2023-10-05T07:41:08.220Z,17.51
2023-10-05T07:43:35.430Z,17.54
2023-10-05T07:46:02.367Z,17.63
2023-10-05T07:48:29.473Z,17.77
2023-10-05T07:50:59.550Z,17.86
2023-10-05T07:53:26.665Z,18.34
2023-10-05T07:55:53.563Z,18.70
2023-10-05T07:58:20.474Z,19.21
2023-10-05T08:00:47.420Z,19.62
2023-10-05T08:03:14.324Z,19.97
2023-10-05T08:05:42.076Z,20.35
2023-10-05T08:08:11.599Z,20.32
2023-10-05T08:10:39.904Z,20.18
2023-10-05T08:13:07.209Z,19.99
2023-10-05T08:15:35.796Z,20.26
2023-10-05T08:18:03.119Z,20.97
2023-10-05T08:20:30.325Z,22.00
2023-10-05T08:22:58.201Z,22.83
2023-10-05T08:25:25.728Z,23.36
2023-10-05T08:27:53.254Z,23.50
2023-10-05T08:30:20.500Z,23.67
2023-10-05T08:32:49.668Z,23.64
2023-10-05T08:35:20.104Z,23.22
2023-10-05T08:37:50.631Z,22.59
2023-10-05T08:40:54.178Z,22.58
2023-10-05T08:43:21.299Z,22.45
2023-10-05T08:45:51.258Z,22.51
2023-10-05T08:48:30.008Z,22.62
2023-10-05T08:51:15.442Z,22.97
2023-10-05T08:54:06.699Z,22.65
2023-10-05T08:56:35.025Z,22.55
2023-10-05T08:59:08.730Z,22.36
2023-10-05T09:01:36.275Z,22.59
2023-10-05T09:04:11.283Z,22.72
2023-10-05T09:06:48.310Z,23.36
2023-10-05T09:09:16.387Z,24.18
2023-10-05T09:11:43.598Z,24.99
2023-10-05T09:14:14.791Z,27.13
2023-10-05T09:16:42.851Z,29.25
2023-10-05T09:19:16.294Z,30.75
2023-10-05T09:21:52.074Z,32.86
2023-10-05T09:24:23.724Z,33.78
2023-10-05T09:26:51.674Z,35.68
2023-10-05T09:29:23.311Z,36.22
2023-10-05T09:31:55.721Z,36.21
2023-10-05T09:34:37.382Z,35.32
2023-10-05T09:37:10.815Z,34.46
2023-10-05T09:39:55.198Z,33.89
2023-10-05T09:42:27.011Z,33.60
2023-10-05T09:44:58.252Z,34.02
2023-10-05T09:47:33.788Z,35.20
2023-10-05T09:50:02.498Z,34.46
2023-10-05T09:52:44.394Z,33.46
2023-10-05T09:55:14.243Z,32.20
2023-10-05T09:57:47.984Z,30.61
2023-10-05T10:00:28.462Z,29.59
2023-10-05T10:03:00.694Z,31.93
2023-10-05T10:05:32.244Z,32.59
2023-10-05T10:08:11.114Z,31.83
2023-10-05T10:10:44.883Z,31.96
2023-10-05T10:13:14.753Z,33.12
2023-10-05T10:15:46.264Z,32.75
2023-10-05T10:18:15.689Z,31.96
2023-10-05T10:20:48.966Z,31.74
2023-10-05T10:23:22.770Z,31.55
2023-10-05T10:25:53.350Z,30.23
2023-10-05T10:28:40.623Z,29.96
2023-10-05T10:31:22.625Z,29.96
2023-10-05T10:33:52.835Z,29.67
2023-10-05T10:36:21.315Z,29.55
2023-10-05T10:38:52.092Z,30.60
2023-10-05T10:41:22.177Z,31.40
2023-10-05T10:43:58.731Z,31.73
2023-10-05T10:46:31.515Z,31.44
2023-10-05T10:48:58.998Z,30.09
2023-10-05T10:51:33.598Z,28.83
2023-10-05T10:54:16.002Z,27.71
2023-10-05T10:56:43.391Z,27.16
2023-10-05T10:59:12.300Z,26.46
2023-10-05T11:01:44.797Z,26.12
2023-10-05T11:04:25.242Z,26.30
2023-10-05T11:07:11.801Z,25.88
2023-10-05T11:09:50.236Z,26.78
2023-10-05T11:12:18.434Z,27.56
2023-10-05T11:14:45.731Z,27.98
2023-10-05T11:17:36.663Z,27.54
2023-10-05T11:20:19.537Z,26.58
2023-10-05T11:22:50.927Z,25.72
2023-10-05T11:25:18.076Z,25.24
2023-10-05T11:27:49.495Z,24.64
2023-10-05T11:30:33.796Z,24.27
2023-10-05T11:33:56.270Z,23.99
2023-10-05T11:35:53.688Z,23.65
2023-10-05T11:38:23.065Z,23.40
2023-10-05T11:40:54.843Z,23.40
2023-10-05T11:43:21.786Z,23.39
2023-10-05T11:45:58.755Z,23.47
2023-10-05T11:48:49.180Z,23.89
2023-10-05T11:51:21.029Z,24.06
2023-10-05T11:53:48.626Z,24.19
2023-10-05T11:56:19.370Z,24.11
2023-10-05T11:58:48.291Z,24.17
2023-10-05T12:01:20.279Z,24.02
2023-10-05T12:03:48.525Z,24.16
2023-10-05T12:06:24.575Z,23.85
2023-10-05T12:08:54.971Z,23.92
2023-10-05T12:11:24.723Z,23.87
2023-10-05T12:14:00.207Z,23.78
2023-10-05T12:16:33.818Z,23.75
2023-10-05T12:19:14.918Z,23.68
2023-10-05T12:21:43.199Z,23.46
2023-10-05T12:24:12.564Z,23.57
2023-10-05T12:26:45.819Z,23.69
2023-10-05T12:29:15.845Z,23.68
2023-10-05T12:31:47.489Z,23.63
2023-10-05T12:34:28.862Z,23.53
2023-10-05T12:36:56.781Z,23.47
2023-10-05T12:39:30.636Z,23.46
2023-10-05T12:41:57.697Z,23.61
2023-10-05T12:44:25.048Z,23.48
2023-10-05T12:46:52.020Z,23.60
2023-10-05T12:49:19.091Z,23.88
2023-10-05T12:51:48.014Z,24.00
2023-10-05T12:54:20.881Z,23.94
2023-10-05T12:56:51.894Z,23.96
2023-10-05T12:59:20.819Z,23.79
2023-10-05T13:01:48.597Z,23.65
2023-10-05T13:04:17.333Z,23.71
2023-10-05T13:06:45.978Z,24.09
2023-10-05T13:09:14.236Z,24.41
2023-10-05T13:11:45.957Z,24.80
2023-10-05T13:14:15.666Z,25.15
2023-10-05T13:16:45.344Z,25.38
2023-10-05T13:19:14.256Z,25.42
2023-10-05T13:21:44.500Z,24.61
2023-10-05T13:24:12.560Z,24.83
2023-10-05T13:26:46.439Z,24.86
2023-10-05T13:29:17.352Z,24.77
2023-10-05T13:31:47.667Z,24.45
2023-10-05T13:34:20.993Z,23.97
2023-10-05T13:36:51.252Z,23.96
2023-10-05T13:39:22.183Z,24.02
2023-10-05T13:41:55.040Z,24.02
2023-10-05T13:44:21.857Z,24.03
2023-10-05T13:46:49.087Z,24.15
2023-10-05T13:49:18.643Z,24.14
2023-10-05T13:51:45.542Z,24.03
2023-10-05T13:54:16.663Z,23.94
2023-10-05T13:56:43.479Z,23.77
2023-10-05T13:59:18.643Z,23.72
2023-10-05T14:01:46.171Z,23.50
2023-10-05T14:04:16.013Z,23.35
2023-10-05T14:06:46.632Z,23.36
2023-10-05T14:09:14.410Z,23.26
2023-10-05T14:11:42.286Z,23.11
2023-10-05T14:14:11.266Z,23.03
2023-10-05T14:16:55.174Z,23.02
2023-10-05T14:19:24.010Z,23.10
2023-10-05T14:21:54.030Z,23.32
2023-10-05T14:24:22.244Z,23.50
2023-10-05T14:26:50.131Z,23.52
2023-10-05T14:29:20.649Z,23.63
2023-10-05T14:31:53.375Z,23.69
2023-10-05T14:34:22.554Z,23.68
2023-10-05T14:36:53.708Z,23.56
2023-10-05T14:39:24.108Z,23.48
2023-10-05T14:41:55.819Z,23.42
2023-10-05T14:44:24.781Z,23.40
2023-10-05T14:46:53.316Z,23.39
2023-10-05T14:49:22.965Z,23.36
2023-10-05T14:51:51.413Z,23.36
2023-10-05T14:54:22.411Z,23.39
2023-10-05T14:56:49.306Z,23.60
2023-10-05T14:59:16.064Z,23.49
2023-10-05T15:01:42.975Z,23.65
2023-10-05T15:04:09.715Z,23.49
2023-10-05T15:06:36.749Z,23.33
2023-10-05T15:09:03.916Z,23.17
2023-10-05T15:11:31.667Z,23.03
2023-10-05T15:13:59.439Z,22.95
2023-10-05T15:16:27.745Z,22.89
2023-10-05T15:18:55.797Z,22.90
2023-10-05T15:21:23.882Z,22.90
2023-10-05T15:23:50.618Z,23.07
2023-10-05T15:26:18.392Z,23.08
2023-10-05T15:28:45.487Z,23.25
2023-10-05T15:31:12.664Z,23.41
2023-10-05T15:33:39.564Z,23.43
2023-10-05T15:36:06.560Z,23.44
2023-10-05T15:38:35.135Z,23.37
2023-10-05T15:41:05.415Z,23.44
2023-10-05T15:43:33.089Z,23.46
2023-10-05T15:46:01.674Z,23.33
2023-10-05T15:48:28.931Z,23.33
2023-10-05T15:50:57.345Z,23.14
2023-10-05T15:53:24.393Z,22.90
2023-10-05T15:55:53.097Z,22.64
2023-10-05T15:58:20.223Z,22.42
2023-10-05T16:00:47.067Z,22.17
2023-10-05T16:03:15.697Z,21.94
2023-10-05T16:05:43.937Z,21.70
2023-10-05T16:08:11.722Z,21.39
2023-10-05T16:10:39.690Z,21.22
2023-10-05T16:13:10.196Z,20.99
2023-10-05T16:15:39.739Z,20.79
2023-10-05T16:18:09.033Z,20.59
2023-10-05T16:20:38.841Z,20.43
2023-10-05T16:23:07.849Z,20.37
2023-10-05T16:25:37.006Z,20.28
2023-10-05T16:28:08.972Z,20.21
2023-10-05T16:30:36.890Z,20.23
2023-10-05T16:33:06.704Z,20.28
2023-10-05T16:35:34.766Z,20.31
2023-10-05T16:38:01.807Z,20.22
2023-10-05T16:40:30.001Z,20.18
2023-10-05T16:42:58.978Z,20.06
2023-10-05T16:45:26.510Z,19.97
2023-10-05T16:47:57.753Z,19.99
2023-10-05T16:50:26.815Z,19.94
2023-10-05T16:52:55.416Z,19.97
2023-10-05T16:55:22.830Z,19.80
2023-10-05T16:57:52.234Z,19.78
2023-10-05T17:00:24.192Z,19.64
2023-10-05T17:02:53.267Z,19.45
2023-10-05T17:05:23.459Z,19.31
2023-10-05T17:07:52.484Z,19.32
2023-10-05T17:10:19.781Z,19.18
2023-10-05T17:12:47.536Z,19.08
2023-10-05T17:15:17.841Z,19.09
2023-10-05T17:17:45.423Z,19.11
2023-10-05T17:20:12.670Z,19.11
2023-10-05T17:22:40.107Z,19.03
2023-10-05T17:25:08.918Z,18.95
2023-10-05T17:27:36.007Z,18.93
2023-10-05T17:30:04.278Z,18.97
2023-10-05T17:32:33.874Z,18.79
2023-10-05T17:35:01.642Z,18.82
2023-10-05T17:37:29.914Z,18.74
2023-10-05T17:39:57.969Z,18.67
2023-10-05T17:42:26.162Z,18.74
2023-10-05T17:44:53.816Z,18.70
2023-10-05T17:47:24.180Z,18.67
2023-10-05T17:49:52.522Z,18.67
2023-10-05T17:52:20.256Z,18.61
2023-10-05T17:54:48.855Z,18.56
2023-10-05T17:57:16.082Z,18.40
2023-10-05T17:59:43.036Z,18.41
2023-10-05T18:02:10.097Z,18.36
2023-10-05T18:04:37.156Z,18.38
2023-10-05T18:07:07.553Z,18.26
2023-10-05T18:09:38.089Z,18.28
2023-10-05T18:12:09.188Z,18.15
2023-10-05T18:14:37.154Z,18.02
2023-10-05T18:17:06.322Z,18.00
2023-10-05T18:19:33.819Z,18.08
2023-10-05T18:22:01.241Z,18.15
2023-10-05T18:24:28.139Z,18.00
2023-10-05T18:26:54.990Z,17.93
2023-10-05T18:29:21.761Z,17.88
2023-10-05T18:31:48.810Z,17.91
2023-10-05T18:34:15.902Z,17.96
2023-10-05T18:36:42.721Z,17.77
2023-10-05T18:39:14.969Z,17.82
2023-10-05T18:41:43.888Z,17.72
2023-10-05T18:44:10.965Z,17.53
2023-10-05T18:46:38.062Z,17.56
2023-10-05T18:49:08.515Z,17.66
2023-10-05T18:51:35.876Z,17.59
2023-10-05T18:54:02.760Z,17.56
2023-10-05T18:56:33.016Z,17.41
2023-10-05T18:59:02.191Z,17.46
2023-10-05T19:01:29.545Z,17.40
2023-10-05T19:03:56.436Z,17.33
2023-10-05T19:06:24.449Z,17.35
2023-10-05T19:08:51.350Z,17.36
2023-10-05T19:11:20.781Z,17.36
2023-10-05T19:13:48.828Z,17.37
2023-10-05T19:16:16.018Z,17.33
2023-10-05T19:18:42.783Z,17.09
2023-10-05T19:21:14.662Z,16.95
2023-10-05T19:23:43.343Z,17.04
2023-10-05T19:26:10.183Z,17.11
2023-10-05T19:28:37.339Z,17.20
2023-10-05T19:31:04.600Z,17.22
2023-10-05T19:33:34.320Z,17.23
2023-10-05T19:36:01.157Z,17.19
2023-10-05T19:38:27.979Z,17.27
2023-10-05T19:40:54.937Z,17.41
2023-10-05T19:43:22.131Z,17.50
2023-10-05T19:45:49.068Z,17.52
2023-10-05T19:48:16.597Z,17.56
2023-10-05T19:50:44.032Z,17.53
2023-10-05T19:53:10.975Z,17.53
2023-10-05T19:55:37.770Z,17.40
2023-10-05T19:58:06.431Z,17.42
2023-10-05T20:00:36.612Z,17.47
2023-10-05T20:03:04.330Z,17.43
2023-10-05T20:05:31.222Z,17.35
2023-10-05T20:07:58.461Z,17.35
2023-10-05T20:10:35.072Z,17.27
2023-10-05T20:13:06.324Z,17.29
2023-10-05T20:15:43.455Z,17.30
2023-10-05T20:18:10.414Z,17.18
2023-10-05T20:20:37.748Z,17.24
2023-10-05T20:23:06.117Z,17.17
2023-10-05T20:25:33.559Z,17.27
2023-10-05T20:28:00.485Z,17.33
2023-10-05T20:30:28.301Z,17.33
2023-10-05T20:32:55.117Z,17.22
2023-10-05T20:35:22.169Z,17.28
2023-10-05T20:37:48.985Z,17.18
2023-10-05T20:40:15.779Z,17.21
2023-10-05T20:42:42.839Z,17.15
2023-10-05T20:45:10.593Z,17.19
2023-10-05T20:47:37.545Z,17.19
2023-10-05T20:50:06.082Z,17.22
2023-10-05T20:52:33.019Z,17.22
2023-10-05T20:54:59.832Z,17.10
2023-10-05T20:57:26.625Z,17.00
2023-10-05T20:59:54.514Z,16.92
2023-10-05T21:02:21.421Z,16.77
2023-10-05T21:04:48.359Z,16.71
2023-10-05T21:07:15.217Z,16.69
2023-10-05T21:09:42.018Z,16.65
2023-10-05T21:12:08.970Z,16.57
2023-10-05T21:14:35.777Z,16.52
2023-10-05T21:17:02.563Z,16.51
2023-10-05T21:19:29.475Z,16.52
2023-10-05T21:21:56.278Z,16.47
2023-10-05T21:24:23.047Z,16.35
2023-10-05T21:26:49.756Z,16.29
2023-10-05T21:29:16.542Z,16.33
2023-10-05T21:31:43.477Z,16.31
2023-10-05T21:34:10.426Z,16.25
2023-10-05T21:36:37.923Z,16.30
2023-10-05T21:39:04.981Z,16.23
2023-10-05T21:41:32.027Z,16.12
2023-10-05T21:43:59.515Z,16.05
2023-10-05T21:46:27.866Z,16.01
2023-10-05T21:48:54.927Z,15.87
2023-10-05T21:51:22.083Z,15.86
2023-10-05T21:53:48.825Z,15.86
2023-10-05T21:56:16.953Z,15.94
2023-10-05T21:58:43.818Z,15.92
2023-10-05T22:01:11.554Z,15.79
2023-10-05T22:03:39.233Z,15.79
2023-10-05T22:06:07.028Z,15.78
2023-10-05T22:08:33.971Z,15.81
2023-10-05T22:11:02.503Z,15.76
2023-10-05T22:13:29.457Z,15.66
2023-10-05T22:15:56.200Z,15.70
2023-10-05T22:18:22.941Z,15.64
2023-10-05T22:20:49.686Z,15.57
2023-10-05T22:23:17.596Z,15.52
2023-10-05T22:25:44.436Z,15.46
2023-10-05T22:28:11.282Z,15.34
2023-10-05T22:30:41.326Z,15.39
2023-10-05T22:33:10.387Z,15.38
2023-10-05T22:35:38.914Z,15.32
2023-10-05T22:38:06.152Z,15.34
2023-10-05T22:40:36.451Z,15.38
2023-10-05T22:43:03.639Z,15.27
2023-10-05T22:45:30.735Z,15.39
2023-10-05T22:47:58.112Z,15.27
2023-10-05T22:50:24.990Z,15.32
2023-10-05T22:52:52.105Z,15.40
2023-10-05T22:55:19.150Z,15.32
2023-10-05T22:57:45.851Z,15.38
2023-10-05T23:00:13.556Z,15.12
2023-10-05T23:02:40.552Z,15.10
2023-10-05T23:05:08.115Z,15.09
2023-10-05T23:07:35.429Z,15.11
2023-10-05T23:10:06.483Z,14.93
2023-10-05T23:12:34.752Z,14.82
2023-10-05T23:15:02.307Z,14.83
2023-10-05T23:17:29.473Z,14.95
2023-10-05T23:19:56.394Z,15.02
2023-10-05T23:22:23.125Z,15.06
2023-10-05T23:24:57.010Z,14.97
2023-10-05T23:27:23.881Z,14.94
2023-10-05T23:29:50.536Z,14.98
2023-10-05T23:32:17.304Z,15.01
2023-10-05T23:34:44.755Z,15.09
2023-10-05T23:37:12.815Z,15.06
2023-10-05T23:39:41.412Z,15.03
2023-10-05T23:42:18.434Z,14.89
2023-10-05T23:44:47.681Z,14.92
2023-10-05T23:47:23.973Z,14.78
2023-10-05T23:49:55.029Z,14.75
2023-10-05T23:52:22.661Z,14.64
2023-10-05T23:54:49.394Z,14.55
2023-10-05T23:57:21.108Z,14.54
2023-10-05T23:59:48.850Z,14.53
